createdAt,value
2023-02-05T00:02:19.569Z,24.20
2023-02-05T00:04:48.185Z,15.20
2023-02-05T00:07:16.080Z,24.80
2023-02-05T00:09:44.003Z,22.80
2023-02-05T00:12:13.290Z,21.40
2023-02-05T00:14:41.554Z,24.20
2023-02-05T00:17:09.474Z,24.40
2023-02-05T00:19:37.381Z,22.40
2023-02-05T00:22:05.614Z,20.60
2023-02-05T00:24:33.720Z,24.60
2023-02-05T00:27:01.695Z,24.00
2023-02-05T00:29:31.070Z,20.60
2023-02-05T00:31:58.963Z,21.40
2023-02-05T00:34:26.913Z,15.00
2023-02-05T00:36:55.103Z,23.60
2023-02-05T00:39:23.067Z,16.80
2023-02-05T00:41:51.344Z,17.80
2023-02-05T00:44:19.402Z,21.60
2023-02-05T00:46:48.872Z,16.20
2023-02-05T00:49:16.884Z,21.20
2023-02-05T00:51:45.084Z,24.40
2023-02-05T00:54:13.021Z,17.40
2023-02-05T00:56:40.971Z,21.20
2023-02-05T00:59:08.972Z,22.20
2023-02-05T01:01:36.955Z,14.80
2023-02-05T01:04:06.319Z,19.00
2023-02-05T01:06:34.543Z,21.20
2023-02-05T01:09:02.587Z,24.00
2023-02-05T01:11:30.514Z,20.20
2023-02-05T01:13:58.451Z,19.00
2023-02-05T01:16:26.476Z,16.00
2023-02-05T01:18:56.682Z,21.20
2023-02-05T01:21:26.462Z,23.80
2023-02-05T01:23:54.917Z,14.60
2023-02-05T01:26:23.266Z,17.60
2023-02-05T01:28:51.182Z,23.00
2023-02-05T01:31:20.625Z,25.40
2023-02-05T01:33:48.739Z,14.60
2023-02-05T01:36:16.694Z,13.00
2023-02-05T01:38:46.378Z,19.40
2023-02-05T01:41:14.367Z,15.60
2023-02-05T01:43:42.281Z,15.00
2023-02-05T01:46:20.399Z,21.20
2023-02-05T01:48:50.031Z,21.20
2023-02-05T01:51:18.093Z,14.60
2023-02-05T01:53:47.931Z,26.20
2023-02-05T01:56:17.493Z,14.00
2023-02-05T01:58:49.762Z,21.60
2023-02-05T02:01:17.837Z,23.40
2023-02-05T02:03:45.854Z,23.60
2023-02-05T02:06:13.799Z,20.20
2023-02-05T02:08:41.956Z,22.00
2023-02-05T02:11:11.575Z,24.00
2023-02-05T02:13:39.477Z,17.20
2023-02-05T02:16:08.079Z,24.00
2023-02-05T02:18:36.466Z,24.40
2023-02-05T02:21:38.484Z,19.80
2023-02-05T02:24:30.464Z,19.60
2023-02-05T02:27:13.395Z,15.60
2023-02-05T02:29:44.431Z,23.20
2023-02-05T02:32:15.549Z,16.00
2023-02-05T02:34:46.271Z,21.60
2023-02-05T02:37:16.116Z,27.60
2023-02-05T02:39:45.718Z,16.60
2023-02-05T02:42:14.690Z,18.60
2023-02-05T02:44:46.106Z,15.60
2023-02-05T02:47:16.062Z,18.60
2023-02-05T02:49:46.535Z,13.00
2023-02-05T02:52:15.443Z,19.20
2023-02-05T02:54:44.595Z,21.60
2023-02-05T02:57:12.641Z,19.40
2023-02-05T02:59:40.569Z,17.20
2023-02-05T03:02:11.730Z,21.20
2023-02-05T03:04:40.525Z,20.20
2023-02-05T03:07:10.629Z,21.80
2023-02-05T03:09:40.812Z,20.80
2023-02-05T03:12:08.786Z,21.40
2023-02-05T03:14:37.059Z,15.60
2023-02-05T03:17:05.441Z,23.20
2023-02-05T03:19:34.875Z,21.20
2023-02-05T03:22:04.842Z,17.60
2023-02-05T03:24:33.058Z,24.40
2023-02-05T03:27:00.970Z,20.80
2023-02-05T03:29:30.138Z,30.80
2023-02-05T03:32:00.888Z,21.40
2023-02-05T03:34:37.524Z,18.00
2023-02-05T03:37:10.889Z,19.00
2023-02-05T03:39:47.075Z,24.20
2023-02-05T03:42:19.655Z,21.40
2023-02-05T03:45:00.757Z,22.20
2023-02-05T03:47:35.471Z,22.00
2023-02-05T03:50:10.704Z,21.80
2023-02-05T03:52:42.613Z,21.20
2023-02-05T03:55:12.361Z,20.00
2023-02-05T03:57:41.609Z,18.40
2023-02-05T04:00:10.884Z,18.20
2023-02-05T04:02:38.831Z,22.80
2023-02-05T04:05:09.130Z,12.40
2023-02-05T04:07:37.068Z,28.80
2023-02-05T04:10:05.094Z,23.60
2023-02-05T04:12:33.096Z,16.00
2023-02-05T04:15:01.323Z,21.40
2023-02-05T04:17:29.274Z,20.20
2023-02-05T04:19:57.171Z,21.00
2023-02-05T04:22:26.445Z,18.60
2023-02-05T04:24:54.681Z,18.00
2023-02-05T04:27:22.615Z,27.20
2023-02-05T04:29:50.609Z,26.40
2023-02-05T04:32:18.490Z,21.00
2023-02-05T04:34:47.416Z,18.20
2023-02-05T04:37:15.313Z,12.20
2023-02-05T04:39:44.670Z,16.40
2023-02-05T04:42:12.868Z,21.20
2023-02-05T04:44:40.805Z,27.20
2023-02-05T04:47:08.751Z,24.80
2023-02-05T04:49:36.697Z,22.00
2023-02-05T04:52:05.024Z,20.40
2023-02-05T04:54:33.123Z,26.60
2023-02-05T04:57:02.465Z,23.80
2023-02-05T04:59:31.702Z,20.60
2023-02-05T05:01:59.618Z,27.00
2023-02-05T05:04:27.641Z,17.20
2023-02-05T05:06:55.607Z,12.20
2023-02-05T05:09:24.321Z,21.20
2023-02-05T05:11:52.366Z,17.20
2023-02-05T05:14:21.888Z,20.00
2023-02-05T05:16:49.980Z,16.40
2023-02-05T05:19:18.090Z,14.20
2023-02-05T05:21:46.504Z,15.40
2023-02-05T05:24:14.412Z,17.60
2023-02-05T05:26:43.947Z,11.60
2023-02-05T05:29:12.331Z,9.00
2023-02-05T05:31:41.769Z,9.80
2023-02-05T05:34:09.713Z,7.00
2023-02-05T05:36:39.989Z,16.00
2023-02-05T05:39:21.766Z,13.60
2023-02-05T05:42:07.303Z,11.20
2023-02-05T05:44:35.236Z,9.80
2023-02-05T05:47:04.673Z,12.00
2023-02-05T05:49:32.812Z,7.40
2023-02-05T05:52:00.721Z,12.60
2023-02-05T05:54:28.639Z,13.20
2023-02-05T05:56:56.923Z,8.60
2023-02-05T05:59:25.128Z,10.00
2023-02-05T06:01:53.064Z,11.20
2023-02-05T06:04:22.465Z,9.80
2023-02-05T06:06:50.427Z,9.00
2023-02-05T06:09:18.360Z,11.80
2023-02-05T06:11:46.617Z,14.20
2023-02-05T06:14:14.548Z,7.00
2023-02-05T06:16:42.574Z,10.00
2023-02-05T06:19:10.526Z,7.40
2023-02-05T06:21:39.806Z,7.40
2023-02-05T06:24:07.970Z,8.20
2023-02-05T06:26:36.146Z,12.20
2023-02-05T06:29:04.295Z,12.00
2023-02-05T06:31:32.367Z,10.80
2023-02-05T06:34:01.299Z,14.00
2023-02-05T06:36:29.197Z,10.80
2023-02-05T06:38:58.485Z,15.20
2023-02-05T06:41:26.685Z,16.80
2023-02-05T06:43:54.613Z,18.40
2023-02-05T06:46:22.608Z,19.80
2023-02-05T06:48:50.514Z,7.80
2023-02-05T06:51:18.416Z,14.80
2023-02-05T06:53:46.320Z,12.60
2023-02-05T06:56:15.635Z,16.80
2023-02-05T06:58:43.824Z,20.60
2023-02-05T07:01:11.709Z,9.60
2023-02-05T07:03:39.628Z,18.80
2023-02-05T07:06:08.321Z,7.20
2023-02-05T07:08:36.269Z,18.60
2023-02-05T07:11:04.370Z,24.40
2023-02-05T07:13:33.823Z,24.00
2023-02-05T07:16:04.430Z,15.40
2023-02-05T07:18:33.557Z,21.80
2023-02-05T07:21:01.906Z,17.60
2023-02-05T07:23:29.852Z,15.80
2023-02-05T07:25:57.729Z,14.20
2023-02-05T07:28:25.709Z,15.40
2023-02-05T07:30:55.479Z,13.60
2023-02-05T07:33:23.452Z,19.00
2023-02-05T07:35:51.799Z,19.00
2023-02-05T07:38:19.862Z,11.40
2023-02-05T07:40:48.022Z,21.00
2023-02-05T07:43:16.034Z,19.60
2023-02-05T07:45:43.950Z,30.00
2023-02-05T07:48:13.239Z,16.40
2023-02-05T07:50:44.621Z,22.00
2023-02-05T07:53:12.564Z,22.40
2023-02-05T07:55:40.532Z,13.80
2023-02-05T07:58:08.898Z,13.40
2023-02-05T08:00:37.109Z,22.60
2023-02-05T08:03:05.142Z,16.80
2023-02-05T08:05:35.030Z,18.40
2023-02-05T08:08:03.266Z,21.00
2023-02-05T08:10:31.201Z,16.20
2023-02-05T08:12:59.126Z,19.00
2023-02-05T08:15:28.198Z,13.00
2023-02-05T08:17:56.186Z,11.60
2023-02-05T08:20:24.452Z,20.60
2023-02-05T08:22:53.781Z,15.40
2023-02-05T08:25:21.744Z,12.20
2023-02-05T08:27:49.717Z,15.80
2023-02-05T08:30:20.212Z,12.00
2023-02-05T08:32:49.027Z,16.40
2023-02-05T08:35:17.050Z,12.00
2023-02-05T08:37:45.052Z,13.00
2023-02-05T08:40:14.569Z,13.40
2023-02-05T08:42:46.963Z,5.00
2023-02-05T08:45:15.025Z,4.80
2023-02-05T08:47:43.269Z,6.00
2023-02-05T08:50:11.837Z,6.00
2023-02-05T08:52:41.059Z,6.00
2023-02-05T08:55:09.257Z,3.40
2023-02-05T08:57:38.971Z,6.20
2023-02-05T09:00:07.388Z,13.00
2023-02-05T09:02:35.416Z,9.80
2023-02-05T09:05:08.803Z,9.00
2023-02-05T09:07:39.748Z,7.00
2023-02-05T09:10:08.580Z,7.40
2023-02-05T09:12:36.499Z,7.00
2023-02-05T09:15:06.601Z,10.80
2023-02-05T09:17:34.633Z,6.80
2023-02-05T09:20:02.889Z,8.20
2023-02-05T09:22:30.807Z,4.40
2023-02-05T09:24:59.062Z,9.60
2023-02-05T09:27:27.015Z,9.40
2023-02-05T09:29:54.889Z,7.60
2023-02-05T09:32:24.306Z,6.00
2023-02-05T09:34:52.485Z,3.60
2023-02-05T09:37:20.410Z,3.00
2023-02-05T09:42:37.379Z,1.80
2023-02-05T09:45:14.672Z,1.00
2023-02-05T09:47:45.995Z,0.60
2023-02-05T09:50:16.413Z,2.60
2023-02-05T09:52:46.020Z,0.00
2023-02-05T09:55:18.744Z,1.00
2023-02-05T09:57:46.719Z,1.40
2023-02-05T10:00:19.643Z,0.60
2023-02-05T10:03:00.857Z,0.00
2023-02-05T10:05:34.025Z,0.00
2023-02-05T10:08:05.837Z,0.60
2023-02-05T10:10:35.762Z,0.00
2023-02-05T10:13:27.384Z,0.00
2023-02-05T10:16:04.872Z,0.00
2023-02-05T10:18:42.105Z,0.00
2023-02-05T10:21:17.364Z,0.00
2023-02-05T10:23:57.920Z,0.00
2023-02-05T10:26:26.957Z,0.60
2023-02-05T10:29:06.135Z,1.40
2023-02-05T10:31:41.967Z,0.80
2023-02-05T10:34:24.168Z,1.00
2023-02-05T10:36:53.587Z,3.00
2023-02-05T10:39:29.187Z,1.40
2023-02-05T10:41:58.899Z,2.60
2023-02-05T10:44:28.959Z,1.00
2023-02-05T10:47:04.362Z,1.20
2023-02-05T10:49:47.538Z,0.00
2023-02-05T10:52:16.229Z,0.00
2023-02-05T10:54:44.528Z,0.80
2023-02-05T10:57:13.934Z,0.80
2023-02-05T10:59:49.258Z,0.00
2023-02-05T11:02:17.642Z,0.00
2023-02-05T11:04:48.224Z,0.00
2023-02-05T11:07:20.562Z,0.80
2023-02-05T11:09:48.599Z,0.00
2023-02-05T11:12:18.784Z,0.00
2023-02-05T11:14:47.034Z,1.00
2023-02-05T11:17:21.704Z,1.00
2023-02-05T11:19:54.726Z,0.00
2023-02-05T11:22:27.499Z,1.00
2023-02-05T11:25:06.246Z,0.00
2023-02-05T11:27:40.245Z,3.00
2023-02-05T11:30:51.120Z,1.00
2023-02-05T11:33:28.008Z,1.00
2023-02-05T11:35:58.251Z,3.00
2023-02-05T11:38:30.887Z,1.00
2023-02-05T11:40:59.782Z,0.80
2023-02-05T11:43:29.048Z,1.00
2023-02-05T11:45:57.691Z,1.00
2023-02-05T11:48:33.564Z,1.00
2023-02-05T11:51:03.201Z,3.00
2023-02-05T11:53:33.086Z,2.20
2023-02-05T11:56:02.636Z,3.00
2023-02-05T11:58:37.111Z,1.00
2023-02-05T12:01:07.337Z,1.00
2023-02-05T12:03:35.435Z,0.00
2023-02-05T12:06:12.968Z,0.00
2023-02-05T12:08:44.352Z,1.00
2023-02-05T12:11:26.156Z,1.00
2023-02-05T12:13:59.062Z,3.00
2023-02-05T12:16:36.173Z,0.40
2023-02-05T12:19:07.771Z,0.00
2023-02-05T12:21:40.576Z,1.00
2023-02-05T12:24:15.594Z,1.00
2023-02-05T12:26:44.073Z,1.00
2023-02-05T12:29:22.678Z,1.00
2023-02-05T12:31:57.327Z,3.40
2023-02-05T12:34:29.486Z,1.00
2023-02-05T12:37:06.674Z,1.00
2023-02-05T12:39:44.473Z,0.00
2023-02-05T12:42:18.941Z,0.00
2023-02-05T12:44:54.190Z,0.80
2023-02-05T12:47:32.532Z,1.00
2023-02-05T12:50:14.516Z,0.00
2023-02-05T12:52:53.613Z,0.40
2023-02-05T12:55:28.192Z,1.00
2023-02-05T12:57:59.314Z,3.60
2023-02-05T13:00:28.542Z,1.00
2023-02-05T13:03:08.759Z,1.00
2023-02-05T13:05:38.315Z,1.00
2023-02-05T13:08:09.212Z,4.60
2023-02-05T13:10:41.912Z,0.60
2023-02-05T13:13:12.658Z,3.00
2023-02-05T13:15:42.054Z,1.80
2023-02-05T13:18:13.995Z,1.00
2023-02-05T13:21:00.289Z,3.00
2023-02-05T13:23:47.346Z,2.20
2023-02-05T13:26:34.505Z,1.80
2023-02-05T13:29:03.932Z,1.00
2023-02-05T13:31:32.926Z,3.00
2023-02-05T13:34:03.723Z,3.00
2023-02-05T13:37:08.989Z,3.00
2023-02-05T13:40:02.040Z,3.60
2023-02-05T13:42:54.567Z,4.00
2023-02-05T13:45:32.921Z,3.00
2023-02-05T13:48:12.643Z,3.00
2023-02-05T13:50:55.441Z,1.40
2023-02-05T13:53:30.242Z,3.00
2023-02-05T13:56:41.493Z,3.20
2023-02-05T13:59:12.149Z,4.00
2023-02-05T14:01:43.156Z,3.60
2023-02-05T14:04:18.914Z,3.20
2023-02-05T14:06:49.395Z,4.00
2023-02-05T14:09:21.730Z,1.00
2023-02-05T14:11:54.529Z,3.80
2023-02-05T14:14:25.502Z,4.60
2023-02-05T14:16:55.355Z,4.80
2023-02-05T14:19:25.743Z,1.00
2023-02-05T14:22:12.789Z,4.00
2023-02-05T14:24:48.414Z,2.60
2023-02-05T14:27:45.149Z,2.60
2023-02-05T14:30:38.618Z,1.00
2023-02-05T14:33:27.645Z,6.80
2023-02-05T14:35:56.561Z,6.60
2023-02-05T14:38:25.963Z,6.80
2023-02-05T14:41:04.736Z,5.60
2023-02-05T14:43:35.157Z,8.60
2023-02-05T14:46:06.498Z,9.00
2023-02-05T14:48:36.033Z,9.00
2023-02-05T14:51:05.774Z,3.40
2023-02-05T14:53:33.835Z,5.60
2023-02-05T14:56:02.048Z,3.20
2023-02-05T14:58:32.443Z,3.40
2023-02-05T15:01:37.839Z,6.80
2023-02-05T15:04:07.449Z,4.00
2023-02-05T15:06:39.675Z,3.00
2023-02-05T15:09:13.538Z,8.00
2023-02-05T15:11:48.997Z,2.60
2023-02-05T15:14:32.680Z,6.40
2023-02-05T15:17:37.995Z,4.00
2023-02-05T15:20:17.232Z,6.00
2023-02-05T15:22:48.119Z,6.80
2023-02-05T15:25:20.701Z,8.20
2023-02-05T15:27:51.038Z,3.80
2023-02-05T15:30:21.277Z,1.80
2023-02-05T15:32:51.130Z,4.00
2023-02-05T15:35:21.121Z,6.00
2023-02-05T15:37:50.957Z,4.40
2023-02-05T15:40:20.727Z,6.00
2023-02-05T15:42:50.564Z,5.20
2023-02-05T15:45:19.442Z,6.00
2023-02-05T15:47:47.421Z,4.80
2023-02-05T15:50:15.454Z,5.60
2023-02-05T15:52:44.727Z,9.00
2023-02-05T15:55:15.002Z,6.20
2023-02-05T15:57:42.923Z,6.80
2023-02-05T16:00:11.985Z,6.40
2023-02-05T16:02:45.799Z,6.60
2023-02-05T16:05:18.224Z,7.00
2023-02-05T16:07:52.219Z,10.00
2023-02-05T16:10:22.095Z,13.80
2023-02-05T16:13:00.423Z,10.00
2023-02-05T16:15:28.549Z,9.40
2023-02-05T16:17:59.671Z,7.80
2023-02-05T16:20:29.464Z,4.80
2023-02-05T16:22:59.719Z,4.00
2023-02-05T16:25:35.013Z,6.00
2023-02-05T16:28:07.898Z,0.60
2023-02-05T16:30:41.347Z,3.00
2023-02-05T16:33:09.740Z,1.00
2023-02-05T16:35:38.742Z,3.20
2023-02-05T16:38:09.678Z,3.20
2023-02-05T16:40:39.127Z,3.80
2023-02-05T16:43:19.110Z,2.60
2023-02-05T16:46:05.153Z,0.40
2023-02-05T16:48:33.256Z,1.00
2023-02-05T16:51:01.524Z,3.00
2023-02-05T16:53:32.575Z,1.00
2023-02-05T16:56:02.508Z,2.60
2023-02-05T16:58:44.174Z,0.40
2023-02-05T17:01:12.463Z,1.00
2023-02-05T17:03:41.543Z,1.80
2023-02-05T17:06:12.260Z,0.60
2023-02-05T17:08:41.732Z,3.00
2023-02-05T17:11:33.414Z,3.00
2023-02-05T17:14:12.546Z,3.00
2023-02-05T17:16:40.990Z,3.20
2023-02-05T17:19:24.112Z,3.80
2023-02-05T17:22:18.464Z,3.40
2023-02-05T17:24:48.979Z,1.00
2023-02-05T17:27:17.644Z,1.00
2023-02-05T17:29:45.805Z,1.00
2023-02-05T17:32:16.128Z,0.60
2023-02-05T17:34:44.624Z,1.80
2023-02-05T17:37:15.044Z,1.00
2023-02-05T17:39:42.906Z,0.20
2023-02-05T17:42:22.204Z,1.40
2023-02-05T17:44:50.180Z,0.80
2023-02-05T17:47:21.236Z,6.40
2023-02-05T17:49:51.872Z,3.80
2023-02-05T17:52:19.847Z,0.60
2023-02-05T17:54:48.016Z,3.00
2023-02-05T17:57:18.542Z,1.00
2023-02-05T17:59:47.052Z,3.80
2023-02-05T18:02:15.018Z,1.80
2023-02-05T18:04:43.572Z,3.60
2023-02-05T18:07:16.722Z,3.00
2023-02-05T18:09:45.037Z,1.00
2023-02-05T18:12:13.026Z,0.00
2023-02-05T18:14:42.451Z,2.20
2023-02-05T18:17:10.808Z,3.20
2023-02-05T18:19:38.833Z,1.00
2023-02-05T18:22:07.783Z,1.00
2023-02-05T18:24:37.045Z,4.40
2023-02-05T18:27:07.603Z,1.40
2023-02-05T18:29:35.633Z,3.00
2023-02-05T18:32:05.142Z,2.20
2023-02-05T18:34:33.106Z,3.00
2023-02-05T18:37:01.196Z,4.00
2023-02-05T18:39:29.643Z,3.20
2023-02-05T18:41:57.739Z,1.80
2023-02-05T18:44:25.795Z,1.00
2023-02-05T18:46:54.132Z,3.20
2023-02-05T18:49:23.780Z,1.40
2023-02-05T18:51:51.917Z,1.80
2023-02-05T18:54:20.131Z,0.00
2023-02-05T18:56:48.777Z,3.00
2023-02-05T18:59:18.237Z,0.40
2023-02-05T19:01:46.476Z,1.80
2023-02-05T19:04:15.106Z,3.40
2023-02-05T19:06:44.892Z,4.00
2023-02-05T19:09:12.869Z,3.20
2023-02-05T19:11:41.614Z,2.20
2023-02-05T19:14:11.276Z,2.40
2023-02-05T19:16:39.277Z,2.60
2023-02-05T19:19:07.765Z,0.20
2023-02-05T19:21:36.244Z,3.00
2023-02-05T19:24:09.452Z,4.20
2023-02-05T19:26:38.573Z,6.00
2023-02-05T19:29:07.363Z,1.80
2023-02-05T19:31:36.315Z,2.60
2023-02-05T19:34:04.575Z,4.00
2023-02-05T19:36:32.765Z,3.00
2023-02-05T19:39:01.242Z,5.20
2023-02-05T19:41:31.737Z,3.40
2023-02-05T19:44:02.370Z,1.00
2023-02-05T19:46:31.821Z,4.00
2023-02-05T19:49:01.555Z,3.20
2023-02-05T19:51:29.621Z,4.00
2023-02-05T19:53:58.103Z,3.80
2023-02-05T19:56:26.242Z,2.20
2023-02-05T19:58:56.449Z,1.40
2023-02-05T20:01:25.686Z,1.00
2023-02-05T20:03:54.501Z,0.80
2023-02-05T20:06:23.421Z,1.00
2023-02-05T20:08:51.673Z,3.00
2023-02-05T20:11:19.982Z,3.80
2023-02-05T20:13:48.156Z,1.00
2023-02-05T20:16:18.618Z,1.80
2023-02-05T20:18:47.199Z,0.80
2023-02-05T20:21:15.903Z,1.80
2023-02-05T20:23:43.906Z,5.60
2023-02-05T20:26:12.126Z,3.40
2023-02-05T20:29:00.869Z,1.00
2023-02-05T20:31:38.053Z,0.40
2023-02-05T20:34:07.181Z,1.00
2023-02-05T20:36:35.649Z,0.60
2023-02-05T20:39:04.925Z,1.00
2023-02-05T20:41:33.137Z,0.80
2023-02-05T20:44:01.081Z,0.40
2023-02-05T20:46:31.039Z,0.60
2023-02-05T20:48:59.969Z,1.00
2023-02-05T20:51:27.941Z,1.40
2023-02-05T20:53:57.737Z,2.60
2023-02-05T20:56:26.110Z,1.00
2023-02-05T20:58:54.631Z,1.00
2023-02-05T21:01:23.888Z,1.00
2023-02-05T21:03:53.916Z,1.00
2023-02-05T21:06:23.010Z,0.00
2023-02-05T21:08:51.898Z,0.00
2023-02-05T21:11:20.277Z,1.00
2023-02-05T21:13:48.846Z,0.40
2023-02-05T21:16:17.825Z,1.80
2023-02-05T21:18:46.022Z,0.00
2023-02-05T21:21:16.176Z,1.00
2023-02-05T21:23:46.522Z,1.80
2023-02-05T21:26:21.024Z,5.20
2023-02-05T21:28:49.179Z,3.00
2023-02-05T21:31:17.168Z,0.60
2023-02-05T21:33:45.200Z,1.80
2023-02-05T21:36:13.954Z,3.20
2023-02-05T21:38:43.621Z,2.60
2023-02-05T21:41:11.721Z,3.80
2023-02-05T21:43:39.860Z,3.00
2023-02-05T21:46:09.668Z,5.20
2023-02-05T21:48:37.570Z,3.40
2023-02-05T21:51:09.503Z,4.00
2023-02-05T21:53:37.511Z,3.80
2023-02-05T21:56:07.699Z,6.00
2023-02-05T21:58:35.819Z,4.40
2023-02-05T22:01:14.033Z,7.80
2023-02-05T22:03:41.999Z,8.20
2023-02-05T22:06:10.418Z,6.20
2023-02-05T22:08:38.875Z,6.00
2023-02-05T22:11:09.411Z,5.20
2023-02-05T22:13:38.617Z,4.40
2023-02-05T22:16:07.528Z,6.00
2023-02-05T22:18:35.482Z,3.00
2023-02-05T22:21:07.723Z,3.20
2023-02-05T22:23:36.117Z,4.80
2023-02-05T22:26:04.361Z,3.40
2023-02-05T22:28:34.008Z,3.80
2023-02-05T22:31:03.025Z,4.00
2023-02-05T22:33:31.158Z,3.60
2023-02-05T22:35:59.118Z,2.60
2023-02-05T22:38:28.792Z,0.60
2023-02-05T22:40:56.728Z,4.00
2023-02-05T22:43:24.627Z,6.40
2023-02-05T22:45:54.227Z,4.00
2023-02-05T22:48:22.178Z,3.00
2023-02-05T22:50:50.094Z,1.40
2023-02-05T22:53:18.101Z,3.80
2023-02-05T22:55:46.275Z,1.40
2023-02-05T22:58:14.284Z,5.00
2023-02-05T23:00:44.562Z,5.80
2023-02-05T23:03:13.970Z,3.20
2023-02-05T23:05:41.890Z,5.60
2023-02-05T23:08:09.840Z,5.20
2023-02-05T23:10:37.796Z,8.60
2023-02-05T23:13:05.799Z,5.60
2023-02-05T23:15:34.304Z,1.40
2023-02-05T23:18:02.496Z,7.00
2023-02-05T23:20:31.864Z,2.60
2023-02-05T23:22:59.817Z,1.40
2023-02-05T23:25:27.919Z,3.20
2023-02-05T23:27:55.999Z,2.60
2023-02-05T23:30:24.291Z,4.00
2023-02-05T23:32:52.365Z,4.00
2023-02-05T23:35:20.297Z,3.60
2023-02-05T23:37:49.602Z,1.00
2023-02-05T23:40:17.745Z,3.00
2023-02-05T23:42:45.717Z,4.00
2023-02-05T23:45:13.674Z,2.20
2023-02-05T23:47:41.559Z,3.00
2023-02-05T23:50:10.450Z,4.00
2023-02-05T23:52:38.470Z,3.80
2023-02-05T23:55:09.105Z,3.20
2023-02-05T23:57:37.312Z,2.20
